createdAt,value
2019-06-20T00:01:05.515Z,66.90
2019-06-20T00:03:35.203Z,67.62
2019-06-20T00:06:04.981Z,68.21
2019-06-20T00:08:34.562Z,68.01
2019-06-20T00:11:04.177Z,67.79
2019-06-20T00:13:33.908Z,67.96
2019-06-20T00:16:04.732Z,68.68
2019-06-20T00:18:34.277Z,68.53
2019-06-20T00:21:03.899Z,68.52
2019-06-20T00:23:33.614Z,67.31
2019-06-20T00:26:03.322Z,67.55
2019-06-20T00:28:33.011Z,67.80
2019-06-20T00:31:03.017Z,68.03
2019-06-20T00:33:32.685Z,68.86
2019-06-20T00:36:02.385Z,68.74
2019-06-20T00:38:32.041Z,68.83
2019-06-20T00:41:01.737Z,68.89
2019-06-20T00:43:31.285Z,69.20
2019-06-20T00:46:00.880Z,69.07
2019-06-20T00:48:30.561Z,69.80
2019-06-20T00:51:00.085Z,69.18
2019-06-20T00:53:29.782Z,68.75
2019-06-20T00:55:59.487Z,69.67
2019-06-20T00:58:29.255Z,69.66
2019-06-20T01:00:59.005Z,69.67
2019-06-20T01:03:28.655Z,70.26
2019-06-20T01:05:58.314Z,69.95
2019-06-20T01:08:28.012Z,70.81
2019-06-20T01:10:57.515Z,70.89
2019-06-20T01:13:33.528Z,71.05
2019-06-20T01:15:58.593Z,70.78
2019-06-20T01:18:28.133Z,70.78
2019-06-20T01:20:57.962Z,71.01
2019-06-20T01:23:27.607Z,71.13
2019-06-20T01:25:57.282Z,70.94
2019-06-20T01:28:27.144Z,71.15
2019-06-20T01:30:56.778Z,71.27
2019-06-20T01:33:26.486Z,71.63
2019-06-20T01:35:56.050Z,71.74
2019-06-20T01:38:25.767Z,71.31
2019-06-20T01:40:55.411Z,71.16
2019-06-20T01:43:25.075Z,71.24
2019-06-20T01:45:55.003Z,71.36
2019-06-20T01:48:25.128Z,70.99
2019-06-20T01:50:54.807Z,70.87
2019-06-20T01:53:24.531Z,71.07
2019-06-20T01:55:54.287Z,70.99
2019-06-20T01:58:24.054Z,71.22
2019-06-20T02:00:53.797Z,71.37
2019-06-20T02:03:23.502Z,71.54
2019-06-20T02:05:53.212Z,71.35
2019-06-20T02:08:23.112Z,70.87
2019-06-20T02:10:52.660Z,70.89
2019-06-20T02:13:22.961Z,70.87
2019-06-20T02:15:52.658Z,70.77
2019-06-20T02:18:22.375Z,71.08
2019-06-20T02:20:57.889Z,70.80
2019-06-20T02:23:27.628Z,70.50
2019-06-20T02:25:57.221Z,70.28
2019-06-20T02:28:26.848Z,70.08
2019-06-20T02:30:56.564Z,70.17
2019-06-20T02:33:26.196Z,70.83
2019-06-20T02:35:55.773Z,70.86
2019-06-20T02:38:25.337Z,70.31
2019-06-20T02:40:55.100Z,69.76
2019-06-20T02:43:24.848Z,70.09
2019-06-20T02:45:54.578Z,70.29
2019-06-20T02:48:24.298Z,70.22
2019-06-20T02:50:53.861Z,69.94
2019-06-20T02:53:23.543Z,70.43
2019-06-20T02:55:53.165Z,70.31
2019-06-20T02:58:22.914Z,70.94
2019-06-20T03:00:58.430Z,70.52
2019-06-20T03:03:30.570Z,70.35
2019-06-20T03:05:59.530Z,70.07
2019-06-20T03:08:30.000Z,70.00
2019-06-20T03:10:59.922Z,70.04
2019-06-20T03:13:30.127Z,70.82
2019-06-20T03:16:00.585Z,70.52
2019-06-20T03:18:30.722Z,70.19
2019-06-20T03:21:01.214Z,70.07
2019-06-20T03:23:32.395Z,70.05
2019-06-20T03:26:02.794Z,70.11
2019-06-20T03:28:33.121Z,69.77
2019-06-20T03:31:03.303Z,69.87
2019-06-20T03:33:33.707Z,69.76
2019-06-20T03:36:04.152Z,69.63
2019-06-20T03:38:34.366Z,69.60
2019-06-20T03:41:04.767Z,69.89
2019-06-20T03:43:34.969Z,69.69
2019-06-20T03:46:05.418Z,69.47
2019-06-20T03:48:35.706Z,69.49
2019-06-20T03:51:06.031Z,69.44
2019-06-20T03:53:36.144Z,69.29
2019-06-20T03:56:06.715Z,69.70
2019-06-20T03:58:37.401Z,70.01
2019-06-20T04:01:07.434Z,69.78
2019-06-20T04:03:37.657Z,69.66
2019-06-20T04:06:07.848Z,69.43
2019-06-20T04:08:38.309Z,69.35
2019-06-20T04:11:08.649Z,69.51
2019-06-20T04:13:39.251Z,69.22
2019-06-20T04:16:09.800Z,69.35
2019-06-20T04:18:40.507Z,69.22
2019-06-20T04:21:10.758Z,69.02
2019-06-20T04:23:40.891Z,68.76
2019-06-20T04:26:11.476Z,67.77
2019-06-20T04:28:41.699Z,67.90
2019-06-20T04:31:11.966Z,68.22
2019-06-20T04:33:42.512Z,68.59
2019-06-20T04:36:12.880Z,68.49
2019-06-20T04:38:43.189Z,68.36
2019-06-20T04:41:13.517Z,68.50
2019-06-20T04:43:44.022Z,68.44
2019-06-20T04:46:21.854Z,68.27
2019-06-20T04:48:52.246Z,68.16
2019-06-20T04:51:22.441Z,67.91
2019-06-20T04:53:52.817Z,67.82
2019-06-20T04:56:23.223Z,67.77
2019-06-20T04:58:53.482Z,67.30
2019-06-20T05:01:23.743Z,67.23
2019-06-20T05:03:53.924Z,67.51
2019-06-20T05:06:24.255Z,67.61
2019-06-20T05:08:54.497Z,67.60
2019-06-20T05:11:24.833Z,67.27
2019-06-20T05:13:55.035Z,67.26
2019-06-20T05:16:25.335Z,67.19
2019-06-20T05:18:55.664Z,67.27
2019-06-20T05:21:25.758Z,66.61
2019-06-20T05:23:56.312Z,67.50
2019-06-20T05:26:26.410Z,67.28
2019-06-20T05:28:56.701Z,67.41
2019-06-20T05:31:26.954Z,67.59
2019-06-20T05:33:57.197Z,66.83
2019-06-20T05:36:27.839Z,66.83
2019-06-20T05:38:57.863Z,67.25
2019-06-20T05:41:28.081Z,66.68
2019-06-20T05:43:58.302Z,66.10
2019-06-20T05:46:28.494Z,66.10
2019-06-20T05:48:58.820Z,66.38
2019-06-20T05:51:29.274Z,66.63
2019-06-20T05:53:59.563Z,67.12
2019-06-20T05:56:29.876Z,67.31
2019-06-20T05:59:00.624Z,66.43
2019-06-20T06:01:30.822Z,65.04
2019-06-20T06:04:00.927Z,63.20
2019-06-20T06:06:31.336Z,64.03
2019-06-20T06:09:01.869Z,63.55
2019-06-20T06:11:32.171Z,62.88
2019-06-20T06:14:02.326Z,63.24
2019-06-20T06:16:32.543Z,62.37
2019-06-20T06:19:02.805Z,63.22
2019-06-20T06:21:33.184Z,62.50
2019-06-20T06:24:03.324Z,63.75
2019-06-20T06:26:34.544Z,63.53
2019-06-20T06:29:04.937Z,62.85
2019-06-20T06:31:35.260Z,62.19
2019-06-20T06:34:05.492Z,61.73
2019-06-20T06:36:35.645Z,61.79
2019-06-20T06:39:11.135Z,61.83
2019-06-20T06:41:41.496Z,62.18
2019-06-20T06:44:11.727Z,62.61
2019-06-20T06:46:48.416Z,61.82
2019-06-20T06:49:13.761Z,62.34
2019-06-20T06:51:44.074Z,62.96
2019-06-20T06:54:14.409Z,62.29
2019-06-20T06:56:44.681Z,62.95
2019-06-20T06:59:14.926Z,62.44
2019-06-20T07:01:45.396Z,62.26
2019-06-20T07:04:15.783Z,61.36
2019-06-20T07:06:46.119Z,60.45
2019-06-20T07:09:16.348Z,60.98
2019-06-20T07:11:46.527Z,60.42
2019-06-20T07:14:16.934Z,61.00
2019-06-20T07:16:59.724Z,60.33
2019-06-20T07:19:18.773Z,60.22
2019-06-20T07:21:49.208Z,59.59
2019-06-20T07:24:19.664Z,59.39
2019-06-20T07:26:49.790Z,59.37
2019-06-20T07:29:20.081Z,58.51
2019-06-20T07:31:50.423Z,57.67
2019-06-20T07:34:20.737Z,58.78
2019-06-20T07:36:51.040Z,59.08
2019-06-20T07:39:21.416Z,58.64
2019-06-20T07:41:51.711Z,57.35
2019-06-20T07:44:22.402Z,57.82
2019-06-20T07:46:52.532Z,58.50
2019-06-20T07:49:22.760Z,58.75
2019-06-20T07:51:52.770Z,58.47
2019-06-20T07:54:23.037Z,58.70
2019-06-20T07:56:53.602Z,59.27
2019-06-20T07:59:23.979Z,57.98
2019-06-20T08:01:54.091Z,57.39
2019-06-20T08:04:24.218Z,57.80
2019-06-20T08:06:54.520Z,58.65
2019-06-20T08:09:25.120Z,59.07
2019-06-20T08:11:55.357Z,59.42
2019-06-20T08:14:25.913Z,58.89
2019-06-20T08:16:56.168Z,59.13
2019-06-20T08:19:26.557Z,58.67
2019-06-20T08:21:57.012Z,58.58
2019-06-20T08:24:27.411Z,59.37
2019-06-20T08:26:58.705Z,58.64
2019-06-20T08:29:29.781Z,57.77
2019-06-20T08:32:01.056Z,58.40
2019-06-20T08:34:31.010Z,58.33
2019-06-20T08:37:02.439Z,57.54
2019-06-20T08:39:33.759Z,58.09
2019-06-20T08:42:04.398Z,56.99
2019-06-20T08:44:34.635Z,56.44
2019-06-20T08:47:05.861Z,55.57
2019-06-20T08:49:36.169Z,56.05
2019-06-20T08:52:06.489Z,55.71
2019-06-20T08:54:36.839Z,54.22
2019-06-20T08:57:07.119Z,53.47
2019-06-20T08:59:37.428Z,53.52
2019-06-20T09:02:07.904Z,54.94
2019-06-20T09:04:38.058Z,53.04
2019-06-20T09:07:08.214Z,52.85
2019-06-20T09:09:38.472Z,53.49
2019-06-20T09:12:08.673Z,52.65
2019-06-20T09:14:39.245Z,52.70
2019-06-20T09:17:09.571Z,52.63
2019-06-20T09:19:40.353Z,53.39
2019-06-20T09:22:10.648Z,52.93
2019-06-20T09:24:41.357Z,51.27
2019-06-20T09:27:11.712Z,50.90
2019-06-20T09:29:42.367Z,51.65
2019-06-20T09:32:12.500Z,52.17
2019-06-20T09:34:42.811Z,52.20
2019-06-20T09:37:13.141Z,51.78
2019-06-20T09:39:43.792Z,53.49
2019-06-20T09:42:14.282Z,53.85
2019-06-20T09:44:44.910Z,53.49
2019-06-20T09:47:15.246Z,53.53
2019-06-20T09:49:49.122Z,54.18
2019-06-20T09:52:17.439Z,55.59
2019-06-20T09:54:49.850Z,57.46
2019-06-20T09:57:19.968Z,58.45
2019-06-20T10:00:02.824Z,59.90
2019-06-20T10:02:22.343Z,60.95
2019-06-20T10:07:22.631Z,59.62
2019-06-20T10:09:54.135Z,58.48
2019-06-20T10:12:24.578Z,61.05
2019-06-20T10:14:56.183Z,60.47
2019-06-20T10:17:26.686Z,59.54
2019-06-20T10:19:57.116Z,58.82
2019-06-20T10:22:27.570Z,60.73
2019-06-20T10:24:57.968Z,59.54
2019-06-20T10:27:28.498Z,61.43
2019-06-20T10:30:13.494Z,58.52
2019-06-20T10:32:30.600Z,61.77
2019-06-20T10:35:00.882Z,62.04
2019-06-20T10:37:31.181Z,62.41
2019-06-20T10:40:01.651Z,63.99
2019-06-20T10:42:31.918Z,64.41
2019-06-20T10:45:02.197Z,63.23
2019-06-20T10:47:35.956Z,63.89
2019-06-20T10:50:07.635Z,63.88
2019-06-20T10:52:37.875Z,63.67
2019-06-20T10:55:08.806Z,62.57
2019-06-20T10:57:41.329Z,61.67
2019-06-20T11:00:12.882Z,62.37
2019-06-20T11:02:43.870Z,62.94
2019-06-20T11:05:15.554Z,62.34
2019-06-20T11:07:47.622Z,61.23
2019-06-20T11:10:18.702Z,59.31
2019-06-20T11:12:54.896Z,60.25
2019-06-20T11:15:20.953Z,58.33
2019-06-20T11:17:51.581Z,58.89
2019-06-20T11:20:23.531Z,57.67
2019-06-20T11:22:52.833Z,54.42
2019-06-20T11:25:23.537Z,53.54
2019-06-20T11:27:53.735Z,55.46
2019-06-20T11:30:27.910Z,53.74
2019-06-20T11:32:58.007Z,53.89
2019-06-20T11:35:28.505Z,53.22
2019-06-20T11:37:58.682Z,52.89
2019-06-20T11:40:29.015Z,53.56
2019-06-20T11:43:11.370Z,51.70
2019-06-20T11:45:52.596Z,53.84
2019-06-20T11:48:22.866Z,51.82
2019-06-20T11:50:53.128Z,51.71
2019-06-20T11:53:23.597Z,50.07
2019-06-20T11:55:53.897Z,50.76
2019-06-20T11:58:24.241Z,49.69
2019-06-20T12:01:03.479Z,50.47
2019-06-20T12:03:25.719Z,50.14
2019-06-20T12:05:56.173Z,49.88
2019-06-20T12:08:26.530Z,49.37
2019-06-20T12:10:56.671Z,47.52
2019-06-20T12:13:26.921Z,48.58
2019-06-20T12:15:57.218Z,49.13
2019-06-20T12:18:27.518Z,48.18
2019-06-20T12:20:57.881Z,47.78
2019-06-20T12:23:28.195Z,47.40
2019-06-20T12:25:58.494Z,46.40
2019-06-20T12:28:29.019Z,46.57
2019-06-20T12:30:59.187Z,45.93
2019-06-20T12:33:29.392Z,47.20
2019-06-20T12:35:59.791Z,45.40
2019-06-20T12:38:30.087Z,48.04
2019-06-20T12:41:00.449Z,47.49
2019-06-20T12:43:30.566Z,47.62
2019-06-20T12:46:01.034Z,48.53
2019-06-20T12:48:31.076Z,48.86
2019-06-20T12:51:01.493Z,47.76
2019-06-20T12:53:31.909Z,48.86
2019-06-20T12:56:02.459Z,47.84
2019-06-20T12:58:32.759Z,49.06
2019-06-20T13:01:03.104Z,49.50
2019-06-20T13:03:33.255Z,48.13
2019-06-20T13:06:03.611Z,48.08
2019-06-20T13:08:33.944Z,48.44
2019-06-20T13:11:03.987Z,49.43
2019-06-20T13:13:34.125Z,49.17
2019-06-20T13:16:04.496Z,49.58
2019-06-20T13:18:36.194Z,50.40
2019-06-20T13:21:06.482Z,50.46
2019-06-20T13:23:36.756Z,51.12
2019-06-20T13:26:07.183Z,51.73
2019-06-20T13:28:53.798Z,51.69
2019-06-20T13:31:09.547Z,51.05
2019-06-20T13:33:40.871Z,51.46
2019-06-20T13:36:11.708Z,50.94
2019-06-20T13:38:42.750Z,50.43
2019-06-20T13:41:13.132Z,49.55
2019-06-20T13:43:43.409Z,49.29
2019-06-20T13:46:13.823Z,48.48
2019-06-20T13:48:45.699Z,48.29
2019-06-20T13:51:15.212Z,49.92
2019-06-20T13:53:46.324Z,49.79
2019-06-20T13:56:16.949Z,50.59
2019-06-20T13:58:48.742Z,50.97
2019-06-20T14:01:18.882Z,50.13
2019-06-20T14:03:49.093Z,49.80
2019-06-20T14:06:19.595Z,48.93
2019-06-20T14:08:50.225Z,47.98
2019-06-20T14:11:20.676Z,46.82
2019-06-20T14:13:53.048Z,46.92
2019-06-20T14:16:22.768Z,49.16
2019-06-20T14:18:53.161Z,48.31
2019-06-20T14:21:23.401Z,47.71
2019-06-20T14:23:53.908Z,46.76
2019-06-20T14:26:24.360Z,45.33
2019-06-20T14:28:55.746Z,45.38
2019-06-20T14:31:26.342Z,45.77
2019-06-20T14:33:56.645Z,45.37
2019-06-20T14:36:26.890Z,44.40
2019-06-20T14:38:57.276Z,42.91
2019-06-20T14:41:27.561Z,45.49
2019-06-20T14:43:57.858Z,45.65
2019-06-20T14:46:27.977Z,46.14
2019-06-20T14:48:58.367Z,46.64
2019-06-20T14:51:28.582Z,49.57
2019-06-20T14:53:58.982Z,52.24
2019-06-20T14:56:29.307Z,52.26
2019-06-20T14:58:59.639Z,52.68
2019-06-20T15:01:29.917Z,54.38
2019-06-20T15:04:00.353Z,54.71
2019-06-20T15:06:30.758Z,56.42
2019-06-20T15:09:05.818Z,59.02
2019-06-20T15:11:33.371Z,60.14
2019-06-20T15:14:03.508Z,59.28
2019-06-20T15:16:33.751Z,58.04
2019-06-20T15:19:03.971Z,57.52
2019-06-20T15:21:34.354Z,57.67
2019-06-20T15:24:04.675Z,57.81
2019-06-20T15:26:34.847Z,58.57
2019-06-20T15:29:06.289Z,57.49
2019-06-20T15:31:36.816Z,58.87
2019-06-20T15:34:07.190Z,58.08
2019-06-20T15:36:38.593Z,58.34
2019-06-20T15:39:09.595Z,59.20
2019-06-20T15:41:39.900Z,59.32
2019-06-20T15:44:10.071Z,59.40
2019-06-20T15:46:40.372Z,59.25
2019-06-20T15:49:16.135Z,59.92
2019-06-20T15:51:41.603Z,60.66
2019-06-20T15:54:11.807Z,60.12
2019-06-20T15:56:41.915Z,60.12
2019-06-20T15:59:12.285Z,59.02
2019-06-20T16:01:42.553Z,58.32
2019-06-20T16:04:12.871Z,58.32
2019-06-20T16:06:42.930Z,56.17
2019-06-20T16:09:13.382Z,55.39
2019-06-20T16:11:43.644Z,55.30
2019-06-20T16:14:13.994Z,55.74
2019-06-20T16:16:44.233Z,57.29
2019-06-20T16:19:14.390Z,56.60
2019-06-20T16:21:44.793Z,56.27
2019-06-20T16:24:14.922Z,52.74
2019-06-20T16:26:45.607Z,50.44
2019-06-20T16:29:15.770Z,47.89
2019-06-20T16:31:45.916Z,46.80
2019-06-20T16:34:16.170Z,48.47
2019-06-20T16:36:46.655Z,48.33
2019-06-20T16:39:17.251Z,49.64
2019-06-20T16:41:47.487Z,46.86
2019-06-20T16:44:17.591Z,45.10
2019-06-20T16:46:47.812Z,43.52
2019-06-20T16:49:18.013Z,40.53
2019-06-20T16:51:48.408Z,39.10
2019-06-20T16:54:18.587Z,37.62
2019-06-20T16:56:48.823Z,39.56
2019-06-20T16:59:18.930Z,39.85
2019-06-20T17:01:49.060Z,39.00
2019-06-20T17:04:19.468Z,38.47
2019-06-20T17:06:49.494Z,37.96
2019-06-20T17:09:19.691Z,37.57
2019-06-20T17:11:50.072Z,37.44
2019-06-20T17:14:20.627Z,36.62
2019-06-20T17:16:51.077Z,36.93
2019-06-20T17:19:21.364Z,37.26
2019-06-20T17:21:51.671Z,36.51
2019-06-20T17:24:21.866Z,37.47
2019-06-20T17:26:52.257Z,39.06
2019-06-20T17:29:22.414Z,41.50
2019-06-20T17:31:52.735Z,43.47
2019-06-20T17:34:22.782Z,42.63
2019-06-20T17:36:52.932Z,40.40
2019-06-20T17:39:23.396Z,39.44
2019-06-20T17:41:55.481Z,38.33
2019-06-20T17:44:27.551Z,37.87
2019-06-20T17:46:57.855Z,37.28
2019-06-20T17:49:28.482Z,35.40
2019-06-20T17:51:58.814Z,36.12
2019-06-20T17:54:29.228Z,36.42
2019-06-20T17:56:59.631Z,38.29
2019-06-20T17:59:29.979Z,37.59
2019-06-20T18:02:00.330Z,40.21
2019-06-20T18:04:30.637Z,41.65
2019-06-20T18:07:00.902Z,41.78
2019-06-20T18:09:31.108Z,40.69
2019-06-20T18:12:01.371Z,39.88
2019-06-20T18:14:34.099Z,41.56
2019-06-20T18:17:03.358Z,41.58
2019-06-20T18:19:33.842Z,43.11
2019-06-20T18:22:03.973Z,44.60
2019-06-20T18:24:34.326Z,44.32
2019-06-20T18:27:04.684Z,44.79
2019-06-20T18:29:35.010Z,44.85
2019-06-20T18:32:05.266Z,45.60
2019-06-20T18:34:35.820Z,46.70
2019-06-20T18:37:06.280Z,46.96
2019-06-20T18:39:37.290Z,48.00
2019-06-20T18:42:07.379Z,48.57
2019-06-20T18:44:37.479Z,49.06
2019-06-20T18:47:07.738Z,49.57
2019-06-20T18:49:37.881Z,50.33
2019-06-20T18:52:07.947Z,50.51
2019-06-20T18:54:38.213Z,50.99
2019-06-20T18:57:08.689Z,51.63
2019-06-20T18:59:38.921Z,51.83
2019-06-20T19:02:09.408Z,51.95
2019-06-20T19:04:47.750Z,52.89
2019-06-20T19:07:11.376Z,52.92
2019-06-20T19:09:41.442Z,53.13
2019-06-20T19:12:11.567Z,52.90
2019-06-20T19:14:41.783Z,52.91
2019-06-20T19:17:14.720Z,53.20
2019-06-20T19:19:43.895Z,53.27
2019-06-20T19:22:14.138Z,52.96
2019-06-20T19:24:44.457Z,53.03
2019-06-20T19:27:14.725Z,53.01
2019-06-20T19:29:45.111Z,53.56
2019-06-20T19:32:15.466Z,53.83
2019-06-20T19:34:58.123Z,54.35
2019-06-20T19:37:17.488Z,54.72
2019-06-20T19:39:47.908Z,54.78
2019-06-20T19:42:20.543Z,55.55
2019-06-20T19:44:49.239Z,55.35
2019-06-20T19:47:19.539Z,55.89
2019-06-20T19:49:49.751Z,56.04
2019-06-20T19:52:20.175Z,56.00
2019-06-20T19:54:50.496Z,55.78
2019-06-20T19:57:20.855Z,56.04
2019-06-20T19:59:50.998Z,56.02
2019-06-20T20:02:21.045Z,55.95
2019-06-20T20:04:50.933Z,56.19
2019-06-20T20:07:20.756Z,56.14
2019-06-20T20:09:50.577Z,56.07
2019-06-20T20:12:20.365Z,56.05
2019-06-20T20:14:50.103Z,55.91
2019-06-20T20:17:19.744Z,56.02
2019-06-20T20:19:49.339Z,55.89
2019-06-20T20:22:19.035Z,55.90
2019-06-20T20:24:48.763Z,56.21
2019-06-20T20:27:18.408Z,56.13
2019-06-20T20:29:48.271Z,56.21
2019-06-20T20:32:17.987Z,55.99
2019-06-20T20:34:47.639Z,56.02
2019-06-20T20:37:18.797Z,56.07
2019-06-20T20:39:48.477Z,56.23
2019-06-20T20:42:18.201Z,55.92
2019-06-20T20:44:47.930Z,55.71
2019-06-20T20:47:17.526Z,55.87
2019-06-20T20:49:47.170Z,55.88
2019-06-20T20:52:17.007Z,55.68
2019-06-20T20:54:46.540Z,56.42
2019-06-20T20:57:16.279Z,56.48
2019-06-20T20:59:46.096Z,56.48
2019-06-20T21:02:15.782Z,56.32
2019-06-20T21:04:45.437Z,55.98
2019-06-20T21:07:15.120Z,56.46
2019-06-20T21:09:45.011Z,57.01
2019-06-20T21:12:14.717Z,57.24
2019-06-20T21:14:44.369Z,56.99
2019-06-20T21:17:14.027Z,57.15
2019-06-20T21:19:43.909Z,56.89
2019-06-20T21:22:13.623Z,57.00
2019-06-20T21:24:43.333Z,57.54
2019-06-20T21:27:13.058Z,57.29
2019-06-20T21:29:41.820Z,57.45
2019-06-20T21:32:11.623Z,57.90
2019-06-20T21:34:41.289Z,57.40
2019-06-20T21:37:11.109Z,57.59
2019-06-20T21:39:40.749Z,57.54
2019-06-20T21:42:10.519Z,57.54
2019-06-20T21:44:40.448Z,57.83
2019-06-20T21:47:10.155Z,57.99
2019-06-20T21:49:39.818Z,58.42
2019-06-20T21:52:09.613Z,58.48
2019-06-20T21:54:38.491Z,58.71
2019-06-20T21:57:08.206Z,58.93
2019-06-20T21:59:37.852Z,58.97
2019-06-20T22:02:08.491Z,59.33
2019-06-20T22:04:53.475Z,59.24
2019-06-20T22:07:09.758Z,59.29
2019-06-20T22:09:39.483Z,59.60
2019-06-20T22:12:09.161Z,59.20
2019-06-20T22:14:38.780Z,59.32
2019-06-20T22:17:08.502Z,59.72
2019-06-20T22:19:38.059Z,59.83
2019-06-20T22:22:07.723Z,59.42
2019-06-20T22:24:37.395Z,59.20
2019-06-20T22:27:07.325Z,58.89
2019-06-20T22:29:37.100Z,59.54
2019-06-20T22:32:06.859Z,59.57
2019-06-20T22:34:36.618Z,59.45
2019-06-20T22:37:06.460Z,60.07
2019-06-20T22:39:36.201Z,60.46
2019-06-20T22:42:05.956Z,60.61
2019-06-20T22:44:35.584Z,60.32
2019-06-20T22:47:05.303Z,60.07
2019-06-20T22:49:34.980Z,59.97
2019-06-20T22:52:04.614Z,59.91
2019-06-20T22:54:33.447Z,60.05
2019-06-20T22:57:03.192Z,60.41
2019-06-20T22:59:32.927Z,60.64
2019-06-20T23:02:02.632Z,60.83
2019-06-20T23:04:32.288Z,60.99
2019-06-20T23:07:01.932Z,60.78
2019-06-20T23:09:31.546Z,60.86
2019-06-20T23:12:01.268Z,60.79
2019-06-20T23:14:30.104Z,61.24
2019-06-20T23:16:59.705Z,61.11
2019-06-20T23:19:29.404Z,61.47
2019-06-20T23:21:59.038Z,61.33
2019-06-20T23:24:28.819Z,61.08
2019-06-20T23:26:58.490Z,60.52
2019-06-20T23:29:28.376Z,60.59
2019-06-20T23:31:58.065Z,60.82
2019-06-20T23:34:27.745Z,61.00
2019-06-20T23:37:11.832Z,61.35
2019-06-20T23:39:28.814Z,61.29
2019-06-20T23:41:58.416Z,61.50
2019-06-20T23:44:28.240Z,61.41
2019-06-20T23:46:57.976Z,61.32
2019-06-20T23:49:27.691Z,61.67
2019-06-20T23:52:02.175Z,61.46
2019-06-20T23:54:31.935Z,60.98
2019-06-20T23:57:01.594Z,60.41
2019-06-20T23:59:31.296Z,60.48
